Time;durP1;ratioP1;P1;durP2;ratioP2;P2;SDS_P1;SDS_P2;PMS_P1;PMS_P2;Temp;Humidity;BMP_temperature;BMP_pressure;BME280_temperature;BME280_humidity;BME280_pressure;Samples;Min_cycle;Max_cycle;Signal;HPM_P1;HPM_P2
2022/10/25 00:00:48;;;;;;;18.40;10.30;;;;;;;;;;6293904;22;20098;-86
2022/10/25 00:03:14;;;;;;;19.25;8.43;;;;;;;;;;6299212;22;20019;-84
2022/10/25 00:05:43;;;;;;;32.83;11.10;;;;;;;;;;6301129;22;20047;-85
2022/10/25 00:08:10;;;;;;;16.50;8.50;;;;;;;;;;6298996;22;20019;-82
2022/10/25 00:10:36;;;;;;;20.42;9.15;;;;;;;;;;6297947;22;20514;-84
2022/10/25 00:13:09;;;;;;;27.50;10.55;;;;;;;;;;6298050;22;20448;-84
2022/10/25 00:15:35;;;;;;;29.40;11.45;;;;;;;;;;6268310;22;20015;-84
2022/10/25 00:18:02;;;;;;;24.80;10.10;;;;;;;;;;6268895;22;20535;-84
2022/10/25 00:20:28;;;;;;;25.80;10.55;;;;;;;;;;6298172;22;20065;-84
2022/10/25 00:22:54;;;;;;;22.42;10.60;;;;;;;;;;6311962;22;20019;-83
2022/10/25 00:25:20;;;;;;;25.05;10.80;;;;;;;;;;6316176;22;20434;-83
2022/10/25 00:27:46;;;;;;;28.70;11.10;;;;;;;;;;6310630;22;20019;-84
2022/10/25 00:30:12;;;;;;;26.60;12.43;;;;;;;;;;6248149;22;20023;-84
2022/10/25 00:32:38;;;;;;;26.98;10.30;;;;;;;;;;6298368;22;20058;-85
2022/10/25 00:35:05;;;;;;;25.48;11.40;;;;;;;;;;6299546;22;20019;-83
2022/10/25 00:37:31;;;;;;;24.02;12.27;;;;;;;;;;6296806;22;20076;-84
2022/10/25 00:39:57;;;;;;;26.02;11.43;;;;;;;;;;6271038;22;20015;-84
2022/10/25 00:42:24;;;;;;;30.30;11.27;;;;;;;;;;6297955;22;20602;-84
2022/10/25 00:44:52;;;;;;;25.20;13.77;;;;;;;;;;6296656;22;20015;-85
2022/10/25 00:47:21;;;;;;;25.05;12.63;;;;;;;;;;6297871;22;20058;-84
2022/10/25 00:50:02;;;;;;;31.77;12.75;;;;;;;;;;6296609;22;20072;-84
2022/10/25 00:52:31;;;;;;;29.52;13.30;;;;;;;;;;6298161;22;20444;-83
2022/10/25 00:54:58;;;;;;;29.55;13.10;;;;;;;;;;6244661;22;20019;-83
2022/10/25 00:57:38;;;;;;;26.45;11.95;;;;;;;;;;6233176;23;20024;-84
2022/10/25 01:00:05;;;;;;;30.05;13.30;;;;;;;;;;6234898;23;20024;-83
2022/10/25 01:02:31;;;;;;;41.33;15.05;;;;;;;;;;6232309;23;20095;-83
2022/10/25 01:04:58;;;;;;;32.50;15.68;;;;;;;;;;6233664;23;20669;-83
2022/10/25 01:07:24;;;;;;;35.13;13.57;;;;;;;;;;6232306;23;20020;-84
2022/10/25 01:09:50;;;;;;;30.27;12.45;;;;;;;;;;6209669;23;20142;-84
2022/10/25 01:12:16;;;;;;;34.00;14.07;;;;;;;;;;6231453;23;20038;-83
2022/10/25 01:14:44;;;;;;;25.65;12.88;;;;;;;;;;6232153;23;20496;-83
2022/10/25 01:17:13;;;;;;;31.73;15.52;;;;;;;;;;6233091;23;20023;-83
2022/10/25 01:19:58;;;;;;;35.60;15.27;;;;;;;;;;6232315;23;20024;-84
2022/10/25 01:22:26;;;;;;;42.55;16.90;;;;;;;;;;6234478;23;20020;-83
2022/10/25 01:25:11;;;;;;;38.70;17.83;;;;;;;;;;6232427;23;20051;-84
2022/10/25 01:27:37;;;;;;;;;;;;;;;;;;6244589;22;20011;-84
2022/10/25 01:30:03;;;;;;;35.38;16.33;;;;;;;;;;6295728;22;20351;-83
2022/10/25 01:32:34;;;;;;;44.72;18.40;;;;;;;;;;6243121;22;20173;-84
2022/10/25 01:35:19;;;;;;;37.90;17.38;;;;;;;;;;6296287;22;20102;-83
2022/10/25 01:37:52;;;;;;;39.47;17.30;;;;;;;;;;6268121;22;20042;-84
2022/10/25 01:40:23;;;;;;;37.78;17.27;;;;;;;;;;6241371;22;20463;-84
2022/10/25 01:42:49;;;;;;;41.17;18.15;;;;;;;;;;6295415;22;20019;-85
2022/10/25 01:45:19;;;;;;;33.97;16.10;;;;;;;;;;6242869;22;20019;-84
2022/10/25 01:47:57;;;;;;;43.17;19.60;;;;;;;;;;6268733;22;20051;-84
2022/10/25 01:50:29;;;;;;;37.70;19.02;;;;;;;;;;6297253;22;20456;-85
2022/10/25 01:52:55;;;;;;;40.63;17.70;;;;;;;;;;6298460;22;20069;-84
2022/10/25 01:55:24;;;;;;;41.92;20.17;;;;;;;;;;6297226;22;20019;-84
2022/10/25 01:58:13;;;;;;;41.00;20.42;;;;;;;;;;6297822;22;20068;-84
2022/10/25 02:00:48;;;;;;;47.58;19.80;;;;;;;;;;6294871;22;20084;-85
2022/10/25 02:03:19;;;;;;;44.60;21.30;;;;;;;;;;6268418;22;20019;-83
2022/10/25 02:05:51;;;;;;;55.53;23.27;;;;;;;;;;6292640;22;20025;-84
2022/10/25 02:08:21;;;;;;;43.03;21.63;;;;;;;;;;6293523;22;20059;-85
2022/10/25 02:10:50;;;;;;;44.03;22.08;;;;;;;;;;6293532;22;20023;-84
2022/10/25 02:13:21;;;;;;;43.85;21.88;;;;;;;;;;6292692;22;20051;-84
2022/10/25 02:15:59;;;;;;;44.03;20.00;;;;;;;;;;6293223;22;20023;-84
2022/10/25 02:18:28;;;;;;;43.08;21.02;;;;;;;;;;6292101;22;20023;-86
2022/10/25 02:20:55;;;;;;;39.92;19.85;;;;;;;;;;6293015;22;20023;-85
2022/10/25 02:23:21;;;;;;;36.40;17.42;;;;;;;;;;6293063;22;20015;-84
2022/10/25 02:25:49;;;;;;;41.35;20.35;;;;;;;;;;6295109;22;20015;-85
2022/10/25 02:28:16;;;;;;;43.80;20.90;;;;;;;;;;6268269;22;20090;-85
2022/10/25 02:30:43;;;;;;;35.80;18.17;;;;;;;;;;6293385;22;20029;-85
2022/10/25 02:33:12;;;;;;;36.13;18.42;;;;;;;;;;6296725;22;20015;-83
2022/10/25 02:35:38;;;;;;;37.03;19.25;;;;;;;;;;6292961;22;20030;-83
2022/10/25 02:38:04;;;;;;;34.70;18.75;;;;;;;;;;6296679;22;20068;-84
2022/10/25 02:40:31;;;;;;;38.92;19.05;;;;;;;;;;6294407;22;20060;-84
2022/10/25 02:42:57;;;;;;;38.28;16.98;;;;;;;;;;6293980;22;20019;-84
2022/10/25 02:45:23;;;;;;;37.55;18.55;;;;;;;;;;6294271;22;20834;-84
2022/10/25 02:47:49;;;;;;;43.17;17.92;;;;;;;;;;6259263;22;20183;-84
2022/10/25 02:50:21;;;;;;;43.40;19.15;;;;;;;;;;6281591;22;20102;-83
2022/10/25 02:52:47;;;;;;;38.45;18.17;;;;;;;;;;6311882;22;20019;-84
2022/10/25 02:55:13;;;;;;;33.72;17.30;;;;;;;;;;6305848;22;20015;-83
2022/10/25 02:57:39;;;;;;;35.45;17.02;;;;;;;;;;6297943;22;20047;-84
2022/10/25 03:00:07;;;;;;;32.20;17.30;;;;;;;;;;6312306;22;20039;-84
2022/10/25 03:02:38;;;;;;;36.63;17.27;;;;;;;;;;6309452;22;20387;-84
2022/10/25 03:05:27;;;;;;;37.85;19.58;;;;;;;;;;6306233;22;20050;-85
2022/10/25 03:07:52;;;;;;;33.90;18.42;;;;;;;;;;6275312;22;20020;-82
2022/10/25 03:10:18;;;;;;;35.55;17.08;;;;;;;;;;6297580;22;20019;-84
2022/10/25 03:12:44;;;;;;;32.80;17.95;;;;;;;;;;6296978;22;20023;-86
2022/10/25 03:15:10;;;;;;;38.80;17.42;;;;;;;;;;6219095;22;20015;-86
2022/10/25 03:17:36;;;;;;;36.17;18.67;;;;;;;;;;6270558;22;20019;-84
2022/10/25 03:20:03;;;;;;;36.03;19.50;;;;;;;;;;6297402;22;20015;-84
2022/10/25 03:22:29;;;;;;;33.58;18.90;;;;;;;;;;6297792;22;20517;-84
2022/10/25 03:24:55;;;;;;;31.45;19.05;;;;;;;;;;6297444;22;20060;-84
2022/10/25 03:27:21;;;;;;;33.50;16.88;;;;;;;;;;6298873;22;20011;-84
2022/10/25 03:29:47;;;;;;;36.25;20.10;;;;;;;;;;6298367;22;20015;-84
2022/10/25 03:32:13;;;;;;;34.28;18.95;;;;;;;;;;6300364;22;20034;-85
2022/10/25 03:34:39;;;;;;;37.83;20.85;;;;;;;;;;6270226;22;20057;-85
2022/10/25 03:37:05;;;;;;;35.88;19.75;;;;;;;;;;6272019;22;20388;-84
2022/10/25 03:39:31;;;;;;;33.40;18.15;;;;;;;;;;6298905;22;20390;-85
2022/10/25 03:41:57;;;;;;;36.53;19.48;;;;;;;;;;6298405;22;20520;-85
2022/10/25 03:44:23;;;;;;;40.08;21.15;;;;;;;;;;6271980;22;20023;-85
2022/10/25 03:46:49;;;;;;;45.92;19.13;;;;;;;;;;6295762;22;20448;-83
2022/10/25 03:49:16;;;;;;;37.70;19.70;;;;;;;;;;6269379;22;20022;-84
2022/10/25 03:51:45;;;;;;;37.28;18.40;;;;;;;;;;6296241;22;20023;-86
2022/10/25 03:54:11;;;;;;;34.90;18.60;;;;;;;;;;6298076;22;20019;-85
2022/10/25 03:56:37;;;;;;;29.73;17.02;;;;;;;;;;6296094;22;20064;-83
2022/10/25 03:59:03;;;;;;;35.83;18.10;;;;;;;;;;6298267;22;20023;-83
2022/10/25 04:01:29;;;;;;;29.92;17.15;;;;;;;;;;6296264;22;20026;-84
2022/10/25 04:03:55;;;;;;;36.28;18.50;;;;;;;;;;6296242;22;20022;-86
2022/10/25 04:06:21;;;;;;;34.13;17.85;;;;;;;;;;6296674;22;20030;-85
2022/10/25 04:08:47;;;;;;;41.60;17.83;;;;;;;;;;6267555;22;20096;-85
2022/10/25 04:11:13;;;;;;;35.03;18.05;;;;;;;;;;6296772;22;20043;-85
2022/10/25 04:13:39;;;;;;;31.38;17.10;;;;;;;;;;6268844;22;20041;-86
2022/10/25 04:16:06;;;;;;;44.33;19.83;;;;;;;;;;6269400;22;20026;-86
2022/10/25 04:18:32;;;;;;;34.30;17.67;;;;;;;;;;6300309;22;20022;-85
2022/10/25 04:20:58;;;;;;;48.92;20.35;;;;;;;;;;6301128;22;20015;-84
2022/10/25 04:23:24;;;;;;;31.65;18.60;;;;;;;;;;6273003;22;20015;-83
2022/10/25 04:25:55;;;;;;;36.65;18.45;;;;;;;;;;6301177;22;20023;-84
2022/10/25 04:28:21;;;;;;;38.95;17.35;;;;;;;;;;6300783;22;20016;-84
2022/10/25 04:30:47;;;;;;;33.03;17.05;;;;;;;;;;6300146;22;20556;-84
2022/10/25 04:33:13;;;;;;;36.50;17.75;;;;;;;;;;6299977;22;20061;-83
2022/10/25 04:35:39;;;;;;;33.17;16.50;;;;;;;;;;6300262;22;20015;-83
2022/10/25 04:38:05;;;;;;;34.08;16.60;;;;;;;;;;6300301;22;20077;-82
2022/10/25 04:40:31;;;;;;;36.17;17.08;;;;;;;;;;6299936;22;20015;-83
2022/10/25 04:43:01;;;;;;;31.08;16.20;;;;;;;;;;6299751;22;20348;-84
2022/10/25 04:45:27;;;;;;;42.90;18.17;;;;;;;;;;6299137;22;20022;-83
2022/10/25 04:47:53;;;;;;;35.10;16.65;;;;;;;;;;6299154;22;20559;-82
2022/10/25 04:50:20;;;;;;;37.45;16.98;;;;;;;;;;6297655;22;20030;-83
2022/10/25 04:52:46;;;;;;;35.58;16.65;;;;;;;;;;6297220;22;20113;-83
2022/10/25 04:55:12;;;;;;;45.70;18.58;;;;;;;;;;6271543;22;20098;-82
2022/10/25 04:57:38;;;;;;;40.35;18.23;;;;;;;;;;6297307;22;20026;-84
2022/10/25 05:00:04;;;;;;;38.78;17.08;;;;;;;;;;6267756;22;20015;-83
2022/10/25 05:02:30;;;;;;;33.22;16.98;;;;;;;;;;6297596;22;20050;-83
2022/10/25 05:04:56;;;;;;;37.83;16.33;;;;;;;;;;6297161;22;20106;-83
2022/10/25 05:07:23;;;;;;;41.75;17.55;;;;;;;;;;6297383;22;20042;-83
2022/10/25 05:09:49;;;;;;;38.58;17.33;;;;;;;;;;6296135;22;20023;-83
2022/10/25 05:12:15;;;;;;;38.97;18.23;;;;;;;;;;6298509;22;20463;-85
2022/10/25 05:14:41;;;;;;;35.63;17.95;;;;;;;;;;6303751;22;20015;-83
2022/10/25 05:17:07;;;;;;;38.45;17.80;;;;;;;;;;6306898;22;20049;-84
2022/10/25 05:19:33;;;;;;;49.45;17.88;;;;;;;;;;6311058;22;20039;-85
2022/10/25 05:21:59;;;;;;;46.35;19.23;;;;;;;;;;6300041;22;20019;-83
2022/10/25 05:24:26;;;;;;;44.05;18.15;;;;;;;;;;6298020;22;20019;-84
2022/10/25 05:26:52;;;;;;;40.95;19.23;;;;;;;;;;6270520;22;20015;-83
2022/10/25 05:29:18;;;;;;;44.50;17.75;;;;;;;;;;6296528;22;20068;-83
2022/10/25 05:31:44;;;;;;;48.42;18.10;;;;;;;;;;6297247;22;20026;-83
2022/10/25 05:34:11;;;;;;;45.83;16.30;;;;;;;;;;6297043;22;20028;-82
2022/10/25 05:36:37;;;;;;;42.70;18.20;;;;;;;;;;6296771;22;20189;-83
2022/10/25 05:39:03;;;;;;;45.65;17.83;;;;;;;;;;6296759;22;20076;-83
2022/10/25 05:41:29;;;;;;;44.08;17.83;;;;;;;;;;6296103;22;20490;-83
2022/10/25 05:43:57;;;;;;;45.03;18.13;;;;;;;;;;6296674;22;20019;-84
2022/10/25 05:46:23;;;;;;;35.58;18.58;;;;;;;;;;6292017;22;20148;-83
2022/10/25 05:48:50;;;;;;;40.17;17.25;;;;;;;;;;6293305;22;20043;-83
2022/10/25 05:51:25;;;;;;;45.83;18.60;;;;;;;;;;6260587;22;20015;-83
2022/10/25 05:53:52;;;;;;;46.15;17.42;;;;;;;;;;6288451;22;20368;-84
2022/10/25 05:56:19;;;;;;;45.55;19.02;;;;;;;;;;6235676;22;20019;-82
2022/10/25 05:58:45;;;;;;;52.25;19.73;;;;;;;;;;6291147;22;20019;-83
2022/10/25 06:01:13;;;;;;;41.70;18.40;;;;;;;;;;6287320;22;20023;-83
2022/10/25 06:03:39;;;;;;;49.95;18.90;;;;;;;;;;6290915;22;20215;-83
2022/10/25 06:06:06;;;;;;;46.00;20.13;;;;;;;;;;6298045;22;20026;-83
2022/10/25 06:08:32;;;;;;;52.83;20.00;;;;;;;;;;6296209;22;20497;-83
2022/10/25 06:11:02;;;;;;;42.58;17.63;;;;;;;;;;6296791;22;20046;-83
2022/10/25 06:13:28;;;;;;;67.07;19.98;;;;;;;;;;6296246;22;20368;-83
2022/10/25 06:15:54;;;;;;;45.92;17.85;;;;;;;;;;6296013;22;20481;-83
2022/10/25 06:18:20;;;;;;;47.50;17.27;;;;;;;;;;6269387;22;20019;-84
2022/10/25 06:20:49;;;;;;;48.72;17.38;;;;;;;;;;6295446;22;20360;-83
2022/10/25 06:23:21;;;;;;;44.88;19.35;;;;;;;;;;6268466;22;20051;-85
2022/10/25 06:25:47;;;;;;;49.70;18.73;;;;;;;;;;6296729;22;20325;-85
2022/10/25 06:28:14;;;;;;;52.70;20.58;;;;;;;;;;6296489;22;20408;-84
2022/10/25 06:30:40;;;;;;;40.17;18.55;;;;;;;;;;6297791;22;20023;-85
2022/10/25 06:33:06;;;;;;;48.75;19.48;;;;;;;;;;6299311;22;20077;-86
2022/10/25 06:35:32;;;;;;;49.70;20.15;;;;;;;;;;6298543;22;20082;-85
2022/10/25 06:38:10;;;;;;;42.33;18.83;;;;;;;;;;6271141;22;20016;-87
2022/10/25 06:40:42;;;;;;;45.72;19.33;;;;;;;;;;6271250;22;20019;-87
2022/10/25 06:43:11;;;;;;;53.65;20.50;;;;;;;;;;6298013;22;20034;-86
2022/10/25 06:45:37;;;;;;;52.28;21.05;;;;;;;;;;6270643;22;20507;-86
2022/10/25 06:48:04;;;;;;;43.50;19.13;;;;;;;;;;6217849;22;20153;-86
2022/10/25 06:50:33;;;;;;;51.35;18.63;;;;;;;;;;6219480;22;20019;-86
2022/10/25 06:53:02;;;;;;;47.13;18.63;;;;;;;;;;6240871;22;20026;-86
2022/10/25 06:55:31;;;;;;;40.85;14.82;;;;;;;;;;6217932;22;20103;-85
2022/10/25 06:57:58;;;;;;;49.75;19.83;;;;;;;;;;6293869;22;20088;-86
2022/10/25 07:00:29;;;;;;;44.20;16.33;;;;;;;;;;6243293;22;20018;-86
2022/10/25 07:02:57;;;;;;;45.20;16.63;;;;;;;;;;6294786;22;20363;-86
2022/10/25 07:05:26;;;;;;;48.08;16.73;;;;;;;;;;6296502;22;20027;-87
2022/10/25 07:07:54;;;;;;;41.65;16.38;;;;;;;;;;6297047;22;20031;-86
2022/10/25 07:10:20;;;;;;;36.63;15.60;;;;;;;;;;6297580;22;20015;-85
2022/10/25 07:12:46;;;;;;;38.50;15.40;;;;;;;;;;6275008;22;20450;-85
2022/10/25 07:15:15;;;;;;;28.23;14.52;;;;;;;;;;6302291;22;20020;-86
2022/10/25 07:17:41;;;;;;;41.83;16.13;;;;;;;;;;6230178;22;20023;-84
2022/10/25 07:20:08;;;;;;;37.92;15.13;;;;;;;;;;6253019;22;20011;-86
2022/10/25 07:22:34;;;;;;;45.45;15.77;;;;;;;;;;6297465;22;20724;-85
2022/10/25 07:25:03;;;;;;;34.13;14.23;;;;;;;;;;6299563;22;20031;-85
2022/10/25 07:27:31;;;;;;;46.85;15.38;;;;;;;;;;6297812;22;20027;-84
2022/10/25 07:29:57;;;;;;;30.25;13.00;;;;;;;;;;6298485;22;20023;-85
2022/10/25 07:32:23;;;;;;;31.58;14.68;;;;;;;;;;6268848;22;20749;-85
2022/10/25 07:34:49;;;;;;;35.40;12.73;;;;;;;;;;6297655;22;20026;-85
2022/10/25 07:37:15;;;;;;;32.47;12.00;;;;;;;;;;6296651;22;20015;-85
2022/10/25 07:39:41;;;;;;;31.70;14.57;;;;;;;;;;6272621;22;20049;-86
2022/10/25 07:42:07;;;;;;;34.35;13.10;;;;;;;;;;6286043;22;20473;-85
2022/10/25 07:44:33;;;;;;;37.72;13.70;;;;;;;;;;6237462;22;20174;-85
2022/10/25 07:46:59;;;;;;;31.58;12.80;;;;;;;;;;6278864;22;20015;-85
2022/10/25 07:49:38;;;;;;;32.00;11.63;;;;;;;;;;6222156;22;20162;-87
2022/10/25 07:52:16;;;;;;;25.90;11.48;;;;;;;;;;6298392;22;20138;-86
2022/10/25 07:54:42;;;;;;;26.33;10.95;;;;;;;;;;6271153;22;20063;-87
2022/10/25 07:57:09;;;;;;;33.05;11.95;;;;;;;;;;6245246;22;20023;-87
2022/10/25 07:59:42;;;;;;;32.97;10.68;;;;;;;;;;6272372;22;20819;-90
2022/10/25 08:02:20;;;;;;;28.42;10.50;;;;;;;;;;6297427;22;20023;-86
2022/10/25 08:04:46;;;;;;;26.00;10.30;;;;;;;;;;6268284;22;20026;-85
2022/10/25 08:07:24;;;;;;;23.08;9.68;;;;;;;;;;6294741;22;20037;-89
2022/10/25 08:09:50;;;;;;;25.33;10.23;;;;;;;;;;6298250;22;20030;-87
2022/10/25 08:12:16;;;;;;;29.35;11.25;;;;;;;;;;6242051;22;20015;-87
2022/10/25 08:14:42;;;;;;;21.45;9.10;;;;;;;;;;6243576;22;20117;-86
2022/10/25 08:17:11;;;;;;;24.58;9.02;;;;;;;;;;6217007;22;20100;-88
2022/10/25 08:19:37;;;;;;;17.08;8.65;;;;;;;;;;6266878;22;20039;-87
2022/10/25 08:22:04;;;;;;;18.73;8.65;;;;;;;;;;6296531;22;20084;-86
2022/10/25 08:24:31;;;;;;;25.17;8.45;;;;;;;;;;6297135;22;20019;-87
2022/10/25 08:26:57;;;;;;;20.30;8.35;;;;;;;;;;6270371;22;20022;-88
2022/10/25 08:29:23;;;;;;;16.30;7.53;;;;;;;;;;6270416;22;20034;-87
2022/10/25 08:31:52;;;;;;;20.70;8.10;;;;;;;;;;6297597;22;20019;-87
2022/10/25 08:34:18;;;;;;;22.75;7.55;;;;;;;;;;6270010;22;20123;-87
2022/10/25 08:36:44;;;;;;;21.65;7.45;;;;;;;;;;6219075;22;20012;-87
2022/10/25 08:39:10;;;;;;;20.90;6.60;;;;;;;;;;6297244;22;20019;-86
2022/10/25 08:42:15;;;;;;;22.25;6.32;;;;;;;;;;6293685;22;20263;-85
2022/10/25 08:45:00;;;;;;;19.85;6.20;;;;;;;;;;6296773;22;20069;-86
2022/10/25 08:47:30;;;;;;;22.20;7.50;;;;;;;;;;6296327;22;20023;-86
2022/10/25 08:49:56;;;;;;;24.52;7.25;;;;;;;;;;6269025;22;20015;-86
2022/10/25 08:52:28;;;;;;;26.23;7.72;;;;;;;;;;6269162;22;20020;-86
2022/10/25 08:54:57;;;;;;;16.83;6.13;;;;;;;;;;6293075;22;20494;-86
2022/10/25 08:57:24;;;;;;;15.68;6.05;;;;;;;;;;6269683;22;20068;-86
2022/10/25 08:59:57;;;;;;;25.70;7.57;;;;;;;;;;6267371;22;20019;-86
2022/10/25 09:02:26;;;;;;;22.25;6.32;;;;;;;;;;6270884;22;20030;-87
2022/10/25 09:04:53;;;;;;;16.98;5.55;;;;;;;;;;6269251;22;20016;-86
2022/10/25 09:07:29;;;;;;;25.40;6.57;;;;;;;;;;6268627;22;20021;-86
2022/10/25 09:10:04;;;;;;;25.17;7.05;;;;;;;;;;6295293;22;20020;-86
2022/10/25 09:12:43;;;;;;;18.45;6.47;;;;;;;;;;6270110;22;20019;-86
2022/10/25 09:15:15;;;;;;;21.30;6.00;;;;;;;;;;6295571;22;20030;-85
2022/10/25 09:17:48;;;;;;;24.30;6.55;;;;;;;;;;6298048;22;20461;-88
2022/10/25 09:20:29;;;;;;;16.40;5.10;;;;;;;;;;6296346;22;20098;-88
2022/10/25 09:23:08;;;;;;;22.65;5.90;;;;;;;;;;6271539;22;20019;-90
2022/10/25 09:25:58;;;;;;;22.35;5.88;;;;;;;;;;6272377;22;20021;-88
2022/10/25 09:28:30;;;;;;;42.40;8.65;;;;;;;;;;6299041;22;20031;-88
2022/10/25 09:31:01;;;;;;;21.90;6.35;;;;;;;;;;6301237;22;20011;-88
2022/10/25 09:33:29;;;;;;;16.63;6.57;;;;;;;;;;6298490;22;20400;-87
2022/10/25 09:36:15;;;;;;;16.77;5.97;;;;;;;;;;6274745;22;20023;-90
2022/10/25 09:38:59;;;;;;;28.67;6.18;;;;;;;;;;6298912;22;20015;-88
2022/10/25 09:41:39;;;;;;;21.02;6.90;;;;;;;;;;6272380;22;20053;-86
2022/10/25 09:44:21;;;;;;;27.05;6.43;;;;;;;;;;6272858;22;20490;-87
2022/10/25 09:46:56;;;;;;;22.00;6.90;;;;;;;;;;6271449;22;20037;-85
2022/10/25 09:49:22;;;;;;;23.17;6.97;;;;;;;;;;6273091;22;20026;-87
2022/10/25 09:52:07;;;;;;;26.35;7.82;;;;;;;;;;6298334;22;20043;-88
2022/10/25 09:55:05;;;;;;;28.63;7.85;;;;;;;;;;6273174;22;20102;-88
2022/10/25 09:57:34;;;;;;;22.33;5.28;;;;;;;;;;6167398;22;20029;-88
2022/10/25 10:00:05;;;;;;;17.65;5.20;;;;;;;;;;6298960;22;20498;-89
2022/10/25 10:02:38;;;;;;;27.00;8.15;;;;;;;;;;6272447;22;20474;-88
2022/10/25 10:05:18;;;;;;;14.52;5.63;;;;;;;;;;6274099;22;20022;-88
2022/10/25 10:07:56;;;;;;;16.80;5.72;;;;;;;;;;6317107;22;20023;-88
2022/10/25 10:10:33;;;;;;;19.25;4.82;;;;;;;;;;6290877;22;20019;-90
2022/10/25 10:13:31;;;;;;;17.88;5.63;;;;;;;;;;6304069;22;20023;-88
2022/10/25 10:16:00;;;;;;;18.02;5.45;;;;;;;;;;6272964;22;20168;-89
2022/10/25 10:18:33;;;;;;;19.15;5.20;;;;;;;;;;6299184;22;20044;-89
2022/10/25 10:21:05;;;;;;;17.90;5.38;;;;;;;;;;6272360;22;20026;-88
2022/10/25 10:24:13;;;;;;;19.17;4.82;;;;;;;;;;6273345;22;20100;-88
2022/10/25 10:26:50;;;;;;;17.17;5.40;;;;;;;;;;6213007;22;20351;-88
2022/10/25 10:32:24;;;;;;;15.57;4.10;;;;;;;;;;6272170;22;20145;-89
2022/10/25 10:34:57;;;;;;;15.50;4.15;;;;;;;;;;6300853;22;20019;-89
2022/10/25 10:37:55;;;;;;;18.17;3.83;;;;;;;;;;6227622;22;20023;-88
2022/10/25 10:40:25;;;;;;;21.35;3.90;;;;;;;;;;6276142;22;20019;-89
2022/10/25 10:43:21;;;;;;;19.52;4.50;;;;;;;;;;6273601;22;20019;-90
2022/10/25 10:46:20;;;;;;;19.10;3.30;;;;;;;;;;6276477;22;20027;-90
2022/10/25 10:49:30;;;;;;;14.55;3.15;;;;;;;;;;6278618;22;20015;-90
2022/10/25 10:51:56;;;;;;;20.13;3.92;;;;;;;;;;6277399;22;20047;-90
2022/10/25 10:54:24;;;;;;;14.20;3.05;;;;;;;;;;6226433;22;20023;-89
2022/10/25 10:57:06;;;;;;;12.73;2.88;;;;;;;;;;6304546;22;20114;-90
2022/10/25 11:02:25;;;;;;;13.00;3.30;;;;;;;;;;6244950;22;20383;-92
2022/10/25 11:04:53;;;;;;;13.93;2.95;;;;;;;;;;6219043;23;20736;-90
2022/10/25 11:07:35;;;;;;;13.50;2.70;;;;;;;;;;6243907;23;20341;-90
2022/10/25 11:10:39;;;;;;;15.18;2.28;;;18.40;99.90;;;;;;6219004;23;20161;-91
2022/10/25 11:13:15;;;;;;;10.02;2.80;;;;;;;;;;6216822;23;20024;-89
2022/10/25 11:15:56;;;;;;;15.32;2.50;;;;;;;;;;6244163;23;20028;-88
2022/10/25 11:18:28;;;;;;;9.55;2.40;;;;;;;;;;6191287;23;20082;-88
2022/10/25 11:21:28;;;;;;;8.18;1.90;;;;;;;;;;6243685;22;20389;-89
2022/10/25 11:23:59;;;;;;;15.45;3.10;;;;;;;;;;6235821;22;20011;-89
2022/10/25 11:26:45;;;;;;;20.45;3.55;;;;;;;;;;6276690;22;20466;-89
2022/10/25 11:29:22;;;;;;;11.40;2.63;;;;;;;;;;6276873;22;20077;-88
2022/10/25 11:32:06;;;;;;;7.82;2.45;;;;;;;;;;6273964;22;20023;-90
2022/10/25 11:35:11;;;;;;;10.57;2.78;;;;;;;;;;6276637;22;20022;-89
2022/10/25 11:37:52;;;;;;;;;;;;;;;;;;6211785;23;20031;-91
2022/10/25 11:40:19;;;;;;;14.43;1.90;;;;;;;;;;6188413;23;19919;-90
2022/10/25 11:43:06;;;;;;;8.80;1.90;;;;;;;;;;6209950;23;20019;-90
2022/10/25 11:46:03;;;;;;;7.45;1.40;;;;;;;;;;6251064;22;20019;-88
2022/10/25 11:48:51;;;;;;;11.25;2.08;;;;;;;;;;6275328;22;20025;-90
2022/10/25 11:51:36;;;;;;;7.47;1.77;;;;;;;;;;6276448;22;20020;-91
2022/10/25 11:54:21;;;;;;;13.00;2.38;;;;;;;;;;6303001;22;20023;-90
2022/10/25 11:57:24;;;;;;;14.50;2.28;;;;;;;;;;6305652;22;20051;-91
2022/10/25 12:00:15;;;;;;;9.27;2.50;;;;;;;;;;6277048;22;20098;-90
2022/10/25 12:03:00;;;;;;;10.18;1.90;;;;;;;;;;6277078;22;20110;-91
2022/10/25 12:05:51;;;;;;;8.52;1.70;;;;;;;;;;6277597;22;20093;-90
2022/10/25 12:08:36;;;;;;;8.35;1.48;;;;;;;;;;6302010;22;20015;-91
2022/10/25 12:11:18;;;;;;;9.88;1.88;;;;;;;;;;6277166;22;20019;-91
2022/10/25 12:13:52;;;;;;;7.75;1.73;;;;;;;;;;6275754;22;20049;-92
2022/10/25 12:16:35;;;;;;;9.05;2.13;;;;;;;;;;6274318;22;20023;-90
2022/10/25 12:19:27;;;;;;;11.38;1.70;;;;;;;;;;6275227;22;20019;-90
2022/10/25 12:21:58;;;;;;;7.22;1.80;;;;;;;;;;6275370;22;20045;-90
2022/10/25 12:28:19;;;;;;;12.45;1.80;;;;;;;;;;6152567;22;20075;-90
2022/10/25 12:31:19;;;;;;;10.18;2.38;;;;;;;;;;6276121;22;20019;-89
2022/10/25 12:34:04;;;;;;;8.65;1.92;;;;;;;;;;6281748;22;20019;-91
2022/10/25 12:36:51;;;;;;;11.27;1.85;;;;;;;;;;6281331;22;20393;-91
2022/10/25 12:39:23;;;;;;;7.40;1.70;;;;;;;;;;6250998;22;20050;-91
2022/10/25 12:42:04;;;;;;;8.95;2.10;;;;;;;;;;6289430;22;20495;-89
2022/10/25 13:00:25;;;;;;;10.48;2.50;;;;;;;;;;6244522;23;20020;-89
2022/10/25 13:03:10;;;;;;;8.27;1.98;;;;;;;;;;6190777;23;20055;-90
2022/10/25 13:06:07;;;;;;;10.95;2.60;;;;;;;;;;6164587;23;20020;-89
2022/10/25 13:08:33;;;;;;;8.80;2.00;;;;;;;;;;6189574;23;20086;-89
2022/10/25 13:16:33;;;;;;;8.65;1.70;;;;;;;;;;6250752;22;20137;-92
2022/10/25 13:22:32;;;;;;;8.60;1.88;;;;;;;;;;6275209;22;20031;-91
2022/10/25 13:25:17;;;;;;;9.02;1.83;;;;;;;;;;6220040;22;20632;-93
2022/10/25 13:28:37;;;;;;;6.93;1.50;;;;;;;;;;6224163;22;20015;-89
2022/10/25 13:31:22;;;;;;;8.40;2.15;;;;;;;;;;6104646;23;20021;-92
2022/10/25 13:40:29;;;;;;;10.55;2.47;;;;;;;;;;6246364;23;20023;-93
2022/10/25 13:48:57;;;;;;;9.48;1.90;;;;;;;;;;6216536;23;20016;-92
2022/10/25 13:52:03;;;;;;;9.77;1.95;;;;;;;;;;6190424;23;20016;-93
2022/10/25 13:55:10;;;;;;;7.47;1.85;;;;;;;;;;6187809;23;20531;-92
2022/10/25 14:10:40;;;;;;;8.00;1.90;;;;;;;;;;6273567;22;20034;-88
2022/10/25 14:19:00;;;;;;;5.85;1.70;;;;;;;;;;6271778;22;20113;-89
2022/10/25 14:30:22;;;;;;;8.95;2.05;;;;;;;;;;6300372;22;20027;-90
2022/10/25 14:32:53;;;;;;;10.50;2.70;;;;;;;;;;6279879;22;20015;-90
2022/10/25 14:35:43;;;;;;;10.25;2.83;;;;;;;;;;6280904;22;20102;-90
2022/10/25 14:44:01;;;;;;;6.22;2.40;;;;;;;;;;6308277;22;20091;-92
2022/10/25 14:46:43;;;;;;;12.63;3.00;;;;;;;;;;6228011;22;20110;-89
2022/10/25 14:49:12;;;;;;;8.25;2.10;;;;;;;;;;6281415;22;20879;-91
2022/10/25 14:55:22;;;;;;;6.13;2.30;;;;;;;;;;6271665;22;20360;-91
2022/10/25 14:57:48;;;;;;;9.43;2.40;;;;;;;;;;6243468;22;20300;-90
2022/10/25 15:00:46;;;;;;;8.63;2.85;;;;;;;;;;6270678;22;20047;-93
2022/10/25 15:03:12;;;;;;;10.48;2.70;;;;;;;;;;6295763;22;20026;-89
2022/10/25 15:05:40;;;;;;;11.60;3.58;;;;;;;;;;6270267;22;20027;-88
2022/10/25 15:08:15;;;;;;;7.20;3.10;;;;;;;;;;6272068;22;20061;-87
2022/10/25 15:10:45;;;;;;;9.77;3.50;;;;;;;;;;6274913;22;20232;-87
2022/10/25 15:13:15;;;;;;;8.85;3.25;;;;;;;;;;6244588;22;20557;-90
2022/10/25 15:18:28;;;;;;;7.80;3.17;;;;;;;;;;6299719;22;20326;-91
2022/10/25 15:21:08;;;;;;;10.32;4.20;;;;;;;;;;6272770;22;20080;-91
2022/10/25 15:24:13;;;;;;;10.40;3.47;;;;;;;;;;6273449;22;20443;-91
2022/10/25 15:26:52;;;;;;;14.10;4.32;;;;;;;;;;6305437;22;20038;-92
2022/10/25 15:29:44;;;;;;;11.40;4.03;;;;;;;;;;6279826;22;20451;-91
2022/10/25 15:32:19;;;;;;;8.63;3.83;;;;;;;;;;6308854;22;20423;-90
2022/10/25 15:34:59;;;;;;;14.38;4.55;;;;;;;;;;6279659;22;20033;-91
2022/10/25 15:37:41;;;;;;;15.65;4.45;;;;;;;;;;6279609;22;20023;-89
2022/10/25 15:42:45;;;;;;;9.18;4.28;;;;;;;;;;6316553;22;20053;-89
2022/10/25 15:45:23;;;;;;;9.35;4.25;;;;;;;;;;6279883;22;20023;-89
2022/10/25 15:47:50;;;;;;;14.82;4.43;;;;;;;;;;6286263;22;20023;-90
2022/10/25 15:53:05;;;;;;;15.98;4.45;;;;;;;;;;6243716;22;20015;-89
2022/10/25 15:58:38;;;;;;;11.77;5.70;;;;;;;;;;6256707;22;20019;-91
2022/10/25 16:01:26;;;;;;;8.43;4.90;;;;;;;;;;6274744;22;20348;-92
2022/10/25 16:03:52;;;;;;;13.60;5.75;;;;;;;;;;6277934;22;20094;-92
2022/10/25 16:06:18;;;;;;;11.88;5.50;;;;;;;;;;6273416;22;20819;-90
2022/10/25 16:12:24;;;;;;;13.38;6.35;;;14.80;99.90;;;;;;6221183;22;20090;-93
2022/10/25 16:15:06;;;;;;;14.45;5.68;;;;;;;;;;6159635;23;20021;-90
2022/10/25 16:20:22;;;;;;;12.00;6.28;;;;;;;;;;6265685;22;20485;-90
2022/10/25 16:26:35;;;;;;;17.02;7.00;;;;;;;;;;6187127;23;20120;-91
2022/10/25 16:33:10;;;;;;;17.70;7.75;;;14.30;99.90;;;;;;6213895;23;20082;-89
2022/10/25 16:35:40;;;;;;;17.63;8.07;;;;;;;;;;6215131;23;20082;-89
2022/10/25 16:38:07;;;;;;;18.58;7.68;;;;;;;;;;6212108;23;20075;-91
2022/10/25 16:40:50;;;;;;;14.00;7.28;;;;;;;;;;6249927;22;20395;-91
2022/10/25 16:43:28;;;;;;;18.20;6.90;;;;;;;;;;6245051;22;20020;-91